This is the latest recevied weather packets stored in our database for station/object IU2PLZ-10. If no packets are shown the sender has not sent any weather packets the latest 10 day(s).
| Time | Temp. | Humidity | Pressure | Rain* | Wind** | Luminosity | Snow |
|---|---|---|---|---|---|---|---|
| 1778006890 | 20.56° C | 49% | 965.2 hPa | - | - | - | - |
| 1778005989 | 20° C | 49% | 964.5 hPa | - | - | - | - |
| 1778005089 | 20.56° C | 49% | 965.2 hPa | - | - | - | - |
| 1778004190 | 20.56° C | 49% | 965.3 hPa | - | - | - | - |
| 1778003289 | 21.11° C | 49% | 965.2 hPa | - | - | - | - |
| 1778002389 | 20.56° C | 49% | 964.4 hPa | - | - | - | - |
| 1778001489 | 21.11° C | 49% | 964.6 hPa | - | - | - | - |
| 1778000588 | 21.67° C | 47% | 965.3 hPa | - | - | - | - |
| 1777999688 | 21.11° C | 46% | 964.6 hPa | - | - | - | - |
| 1777998788 | 22.22° C | 44% | 965.6 hPa | - | - | - | - |
| 1777997888 | 22.22° C | 43% | 965.1 hPa | - | - | - | - |
| 1777996988 | 22.78° C | 41% | 965.1 hPa | - | - | - | - |
| 1777996088 | 23.33° C | 40% | 965.7 hPa | - | - | - | - |
| 1777995187 | 23.89° C | 40% | 965.8 hPa | - | - | - | - |
| 1777994287 | 24.44° C | 40% | 965.9 hPa | - | - | - | - |
| 1777993387 | 23.89° C | 40% | 965.2 hPa | - | - | - | - |
| 1777992487 | 25° C | 40% | 965.6 hPa | - | - | - | - |
| 1777991587 | 25° C | 40% | 965 hPa | - | - | - | - |
| 1777990687 | 25.56° C | 39% | 965 hPa | - | - | - | - |
| 1777989787 | 26.11° C | 39% | 965.8 hPa | - | - | - | - |
| 1777988886 | 26.67° C | 40% | 965.9 hPa | - | - | - | - |
| 1777987986 | 26.67° C | 41% | 965.4 hPa | - | - | - | - |
| 1777987086 | 27.22° C | 43% | 966.1 hPa | - | - | - | - |
| 1777986186 | 27.22° C | 45% | 966.3 hPa | - | - | - | - |
| 1777985286 | 26.11° C | 47% | 965.8 hPa | - | - | - | - |
* Rain since midnight (hover to see other rain measurements)
** Current wind speed in m/s (hover to see current wind gust speed)